메인 페이지
METAR-TAF:

METAR-TAF

공항 :

Woodward, 오클라호마, 미국

위도: 36-26-12N, 경도: 099-31-16W, 고도: 667m

현재 날씨관측

예보는 30분 전, 22:50시(UTC)에 발표되었습니다.
13kt, 순간 최대 풍속 17kt
온도 36°C
습도 33%
기압 1012 hPa
시정: 16.1km
맑음

METAR: KWWR 132250Z AUTO 19013G17KT 10SM CLR 36/17 A2989 RMK AO2

시각: 18:20 (23:20 UTC)

예보

예보는 6 시간 0분 전, 17:20시(UTC)에 발표되었습니다.
예보 대상 시간: 13일 18시부터 14일 18시까지 (UTC)
남남서15kt, 순간 최대 풍속 22kt
시정: 10km
고도 15000ft 상공 구름 보통
확률 30%
14일 01시부터 14일 04시까지 (UTC)
고도 2000ft 상공 흐림, 적란운.
뇌우, 약한비
14일 0400시부터 (UTC)
남남동8kt
시정: 10km
고도 8000ft 상공 구름 보통
고도 15000ft 상공 구름 많음

TAF: KWWR 131720Z 1318/1418 20015G22KT P6SM SCT150 PROB30 1401/1404 -TSRA OVC020CB FM140400 15008KT P6SM SCT080 BKN150

4,000개 이상의 공항 관측 자료 및 예보 (METAR 및 TAF 보고).

지도상에서 검색 가능한 기상관측소가 노란 점과 빨간 점으로 표시되어 있습니다.

기상관측소 명을 보려면 표시 위로 마우스를 이동하세요.

날씨 관측과 예보를 보려면 클릭하세요.

지도 변경 : 확대하려면 엑스 표시가 있는 녹색 버튼, 축소하려면 빼기 표시가 있는 녹색 버튼, 다음 페이지의 지도를 보려면 녹색 화살표를 클릭하세요.


METAR-TAF: